»·PEaware :: AAL1416 KSLC-KLAS

AAL1416 :: KSLC-KLAS

FLIGHT INFORMATION

Flight Status: Arrived
Operator:
American Airlines
More flights by this operator :: More flights under this callsign
Pilot: Max W. (2591)
Aircraft: BOEING 757-200
(B752)
More flights by this aircraft type
Origin: KSLC Salt Lake City Intl
United States
Destination: KLAS McCarran Intl
United States
More flights between these airports :: More routes between these airports
Route: +WEVIC5 EHK MPIRE SITEE1
File this flight plan on PilotEdge
Remarks:
Altitude:
(Current/Filed)
30,000ft
Speed:
(Current/Filed)
450kts
Departed: 11-Jun-17 03:42 PM
Arrived: 11-Jun-17 04:40 PM
Distance/Time
Traveled:
319nm/0:58
Distance/Time
To Go:
Arrived

Flight Plot

Page will automatically refresh every two minutes.


Map Options




Map Legend


Flown Route
Filed Route
Departure Airport
Arrival Airport
Navaid (VOR, NDB)
Fix

Horizontal Profiles

Position Reports

Time Latitude Longitude Heading Altitude Ground
Speed
11-Jun-17 15:27 40.784615 -111.977988 0 4239ft 0kts
11-Jun-17 15:28 40.784615 -111.977988 0 4239ft 0kts
11-Jun-17 15:29 40.784615 -111.977988 0 4238ft 0kts
11-Jun-17 15:30 40.784615 -111.977988 0 4238ft 0kts
11-Jun-17 15:31 40.784615 -111.977988 0 4238ft 0kts
11-Jun-17 15:32 40.784615 -111.977988 0 4238ft 0kts
11-Jun-17 15:33 40.784615 -111.977988 0 4238ft 0kts
11-Jun-17 15:34 40.784615 -111.977988 0 4238ft 0kts
11-Jun-17 15:35 40.784516 -111.977988 0 4238ft 2kts
11-Jun-17 15:36 40.783875 -111.977985 6 4238ft 1kts
11-Jun-17 15:37 40.783791 -111.978015 30 4238ft 0kts
11-Jun-17 15:38 40.783798 -111.978015 30 4238ft 0kts
11-Jun-17 15:39 40.783804 -111.978015 30 4238ft 0kts
11-Jun-17 15:40 40.784103 -111.977039 85 4238ft 5kts
11-Jun-17 15:41 40.789352 -111.977012 354 4238ft 25kts
11-Jun-17 15:42 40.797789 -111.978012 357 4238ft 34kts
11-Jun-17 15:43 40.806286 -111.978518 356 4238ft 28kts
11-Jun-17 15:44 40.794817 -111.975473 175 4238ft 129kts
11-Jun-17 15:45 40.751488 -111.971514 179 5296ft 157kts
11-Jun-17 15:46 40.700387 -111.974904 179 6007ft 209kts
11-Jun-17 15:47 40.638655 -111.972036 177 7759ft 233kts
11-Jun-17 15:48 40.571668 -111.966909 172 9550ft 252kts
11-Jun-17 15:49 40.496392 -111.958739 176 11219ft 282kts
11-Jun-17 15:50 40.418023 -111.953007 180 13319ft 290kts
11-Jun-17 15:51 40.332217 -111.947157 182 14340ft 332kts
11-Jun-17 15:52 40.239963 -111.947005 193 16199ft 332kts
11-Jun-17 15:53 40.147353 -111.961602 192 17859ft 341kts
11-Jun-17 15:54 40.052413 -111.975504 193 19371ft 348kts
11-Jun-17 15:55 39.955423 -111.989681 193 20768ft 355kts
11-Jun-17 15:56 39.856773 -112.004060 193 22045ft 362kts
11-Jun-17 15:57 39.756236 -112.019590 194 23216ft 367kts
11-Jun-17 15:58 39.654439 -112.034533 192 24296ft 374kts
11-Jun-17 15:59 39.550275 -112.046943 193 25229ft 380kts
11-Jun-17 16:00 39.441211 -112.061691 193 25352ft 411kts
11-Jun-17 16:01 39.323807 -112.079272 193 25419ft 444kts
11-Jun-17 16:02 39.196989 -112.096767 192 25865ft 467kts
11-Jun-17 16:03 39.077797 -112.147464 215 26877ft 453kts
11-Jun-17 16:04 38.967726 -112.227032 215 27837ft 458kts
11-Jun-17 16:05 38.856709 -112.307485 215 28695ft 464kts
11-Jun-17 16:06 38.744254 -112.388741 215 29509ft 468kts
11-Jun-17 16:07 38.630514 -112.470623 215 29698ft 470kts
11-Jun-17 16:08 38.516707 -112.552275 215 29752ft 470kts
11-Jun-17 16:09 38.405818 -112.631539 215 29748ft 470kts
11-Jun-17 16:10 38.292562 -112.712209 215 29747ft 470kts
11-Jun-17 16:11 38.178774 -112.792965 215 29747ft 470kts
11-Jun-17 16:12 38.064795 -112.873567 215 29746ft 470kts
11-Jun-17 16:13 37.951088 -112.953684 215 29798ft 469kts
11-Jun-17 16:14 37.837701 -113.033298 215 29800ft 469kts
11-Jun-17 16:15 37.748602 -113.142658 240 29817ft 447kts
11-Jun-17 16:16 37.678558 -113.271181 240 29809ft 446kts
11-Jun-17 16:17 37.608382 -113.400186 240 29808ft 446kts
11-Jun-17 16:18 37.526595 -113.518361 218 29818ft 468kts
11-Jun-17 16:19 37.410053 -113.592818 213 29803ft 474kts
11-Jun-17 16:20 37.291876 -113.666732 211 29695ft 476kts
11-Jun-17 16:21 37.193078 -113.726020 211 29336ft 469kts
11-Jun-17 16:22 37.058008 -113.806333 210 26094ft 454kts
11-Jun-17 16:23 36.945942 -113.872665 210 23077ft 449kts
11-Jun-17 16:24 36.852996 -113.927444 210 20883ft 436kts
11-Jun-17 16:25 36.728064 -114.000893 210 17921ft 419kts
11-Jun-17 16:26 36.624494 -114.061596 209 15431ft 406kts
11-Jun-17 16:27 36.554484 -114.131194 238 14048ft 386kts
11-Jun-17 16:28 36.487302 -114.259556 240 12030ft 374kts
11-Jun-17 16:29 36.436583 -114.357966 241 11938ft 305kts
11-Jun-17 16:30 36.400228 -114.428653 241 11944ft 291kts
11-Jun-17 16:31 36.356579 -114.513419 241 11885ft 287kts
11-Jun-17 16:32 36.313604 -114.596773 241 10145ft 286kts
11-Jun-17 16:33 36.271756 -114.677753 241 9891ft 256kts
11-Jun-17 16:34 36.235884 -114.747357 241 8866ft 236kts
11-Jun-17 16:35 36.200936 -114.814808 241 7424ft 232kts
11-Jun-17 16:36 36.166349 -114.881545 241 6014ft 228kts
11-Jun-17 16:37 36.134207 -114.944171 240 4992ft 210kts
11-Jun-17 16:38 36.133384 -115.013136 270 4107ft 208kts
11-Jun-17 16:39 36.134308 -115.079527 267 3757ft 182kts
11-Jun-17 16:40 36.128171 -115.134683 234 2966ft 161kts
11-Jun-17 16:41 36.089517 -115.158712 206 2193ft 133kts
11-Jun-17 16:42 36.078029 -115.163753 92 2193ft 1kts
11-Jun-17 16:43 36.078013 -115.162578 89 2193ft 14kts
11-Jun-17 16:44 36.078022 -115.153931 90 2193ft 26kts
11-Jun-17 16:45 36.077650 -115.144843 93 2193ft 25kts
11-Jun-17 16:46 36.079875 -115.140477 59 2193ft 0kts

Navigation Log

Ident Type
1. KSLC Airport
2. HOPTO Fix
3. MYRUP Fix
4. WEVIC Fix
5. ZOOBE Fix
6. GITLN Fix
7. LODUY Fix
8. URNUW Fix
9. EHK Navaid
10. MPIRE Fix
11. KSINO Fix
12. WYYNN Fix
13. SITEE Fix
14. HEREI Fix
15. AAMMM Fix
16. LOOSN Fix
17. GRMPS Fix
18. KLAS Airport